createdAt,value
2019-02-22T05:51:29.687Z,-3.60
2019-02-22T09:05:57.041Z,-2.50
2019-02-22T15:01:14.786Z,-1.60
2019-02-22T18:43:44.024Z,-3.30
2019-02-22T19:15:39.236Z,-3.30
2019-02-22T19:19:47.019Z,-3.40
2019-02-22T19:28:34.682Z,-3.40
2019-02-22T19:32:44.876Z,-3.40
2019-02-22T19:37:06.177Z,-3.50
2019-02-22T19:41:14.833Z,-3.50
2019-02-22T19:45:27.270Z,-3.40
2019-02-22T19:49:37.259Z,-3.50
2019-02-22T19:53:48.280Z,-3.20
2019-02-22T19:57:48.364Z,-3.50
2019-02-22T20:01:55.753Z,-3.50
2019-02-22T20:06:06.449Z,-3.40
2019-02-22T20:10:18.274Z,-3.50
2019-02-22T20:18:33.436Z,-3.50
2019-02-22T20:22:42.449Z,-3.50
2019-02-22T20:27:00.253Z,-3.50
2019-02-22T20:31:19.849Z,-3.50
2019-02-22T20:35:22.640Z,-3.50
2019-02-22T20:39:32.099Z,-3.60
2019-02-22T20:43:40.499Z,-3.60
2019-02-22T20:47:48.484Z,-3.50
2019-02-22T20:51:55.688Z,-3.50
2019-02-22T20:56:10.741Z,-3.60
2019-02-22T21:00:19.321Z,-3.60
2019-02-22T21:04:27.489Z,-3.60
2019-02-22T21:08:38.906Z,-3.70
2019-02-22T21:12:45.637Z,-3.80
2019-02-22T21:17:18.935Z,-3.50
2019-02-22T21:21:25.581Z,-4.10
2019-02-22T22:13:30.728Z,-3.70
2019-02-22T22:17:53.187Z,-3.80
2019-02-22T22:22:22.114Z,-3.80
2019-02-22T22:26:30.537Z,-3.70
2019-02-22T22:30:41.346Z,-3.60
2019-02-22T22:34:47.954Z,-3.80
2019-02-22T22:43:29.913Z,-3.30
2019-02-22T22:47:37.904Z,-3.90
2019-02-22T22:51:45.427Z,-4.00
2019-02-22T23:21:08.569Z,-4.20
2019-02-22T23:25:19.206Z,-4.40
2019-02-22T23:38:41.528Z,-4.10
2019-02-22T23:42:48.037Z,-4.50
2019-02-22T23:46:54.774Z,-4.20
2019-02-22T23:51:05.103Z,-4.20
2019-02-22T23:55:13.290Z,-4.30
2019-02-22T23:59:40.679Z,-4.20
